Terminal Aerodrome Forecast
Issued by NWS

Home | Current Version | Previous Version | Text Only | Print | Product List | Glossary On
Versions: 1 2 3 4 5 6 7 8 9 10 11 12 13 14
000
FTUS41 KPHI 201100
TAFMIV
TAF
KMIV 201124Z 2012/2112 VRB03KT P6SM BKN070
     FM201400 09006KT P6SM SCT060 BKN100
     FM201800 14007KT P6SM FEW050 BKN120
     FM210100 11004KT P6SM SCT040 OVC120=

USA.gov is the U.S. government's official web portal to all federal, state and local government web resources and services.